sensor_id;sensor_type;location;lat;lon;timestamp;temperature;humidity
57753;DHT22;43583;53.132;6.574;2024-01-11T00:00:45;-5.00;99.90
57753;DHT22;43583;53.132;6.574;2024-01-11T00:03:10;-5.00;99.90
57753;DHT22;43583;53.132;6.574;2024-01-11T00:05:36;-5.00;99.90
57753;DHT22;43583;53.132;6.574;2024-01-11T00:08:02;-4.90;99.90
57753;DHT22;43583;53.132;6.574;2024-01-11T00:10:28;-4.90;99.90
57753;DHT22;43583;53.132;6.574;2024-01-11T00:12:54;-4.80;99.90
57753;DHT22;43583;53.132;6.574;2024-01-11T00:15:19;-4.90;99.90
57753;DHT22;43583;53.132;6.574;2024-01-11T00:17:45;-4.80;99.90
57753;DHT22;43583;53.132;6.574;2024-01-11T00:20:11;-4.80;99.90
57753;DHT22;43583;53.132;6.574;2024-01-11T00:22:36;-4.80;99.90
57753;DHT22;43583;53.132;6.574;2024-01-11T00:25:02;-4.90;99.90
57753;DHT22;43583;53.132;6.574;2024-01-11T00:27:29;-4.90;99.90
57753;DHT22;43583;53.132;6.574;2024-01-11T00:29:55;-4.90;99.90
57753;DHT22;43583;53.132;6.574;2024-01-11T00:32:20;-4.90;99.90
57753;DHT22;43583;53.132;6.574;2024-01-11T00:34:48;-4.90;99.90
57753;DHT22;43583;53.132;6.574;2024-01-11T00:37:14;-4.90;99.90
57753;DHT22;43583;53.132;6.574;2024-01-11T00:39:40;-4.90;99.90
57753;DHT22;43583;53.132;6.574;2024-01-11T00:42:05;-4.90;99.90
57753;DHT22;43583;53.132;6.574;2024-01-11T00:44:31;-4.90;99.90
57753;DHT22;43583;53.132;6.574;2024-01-11T00:46:57;-4.80;99.90
57753;DHT22;43583;53.132;6.574;2024-01-11T00:49:23;-4.80;99.90
57753;DHT22;43583;53.132;6.574;2024-01-11T00:51:48;-4.80;99.90
57753;DHT22;43583;53.132;6.574;2024-01-11T00:54:14;-4.70;99.90
57753;DHT22;43583;53.132;6.574;2024-01-11T00:56:39;-4.70;99.90
57753;DHT22;43583;53.132;6.574;2024-01-11T00:59:05;-4.70;99.90
57753;DHT22;43583;53.132;6.574;2024-01-11T01:01:31;-4.70;99.90
57753;DHT22;43583;53.132;6.574;2024-01-11T01:03:56;-4.70;99.90
57753;DHT22;43583;53.132;6.574;2024-01-11T01:06:22;-4.60;99.90
57753;DHT22;43583;53.132;6.574;2024-01-11T01:08:48;-4.60;99.90
57753;DHT22;43583;53.132;6.574;2024-01-11T01:11:13;-4.70;99.90
57753;DHT22;43583;53.132;6.574;2024-01-11T01:13:39;-4.70;99.90
57753;DHT22;43583;53.132;6.574;2024-01-11T01:16:05;-4.70;99.90
57753;DHT22;43583;53.132;6.574;2024-01-11T01:18:31;-4.70;99.90
57753;DHT22;43583;53.132;6.574;2024-01-11T01:20:57;-4.80;99.90
57753;DHT22;43583;53.132;6.574;2024-01-11T01:23:22;-4.80;99.90
57753;DHT22;43583;53.132;6.574;2024-01-11T01:25:48;-4.90;99.90
57753;DHT22;43583;53.132;6.574;2024-01-11T01:28:14;-5.00;99.90
57753;DHT22;43583;53.132;6.574;2024-01-11T01:30:40;-5.00;99.90
57753;DHT22;43583;53.132;6.574;2024-01-11T01:33:05;-5.00;99.90
57753;DHT22;43583;53.132;6.574;2024-01-11T01:35:31;-5.10;99.90
57753;DHT22;43583;53.132;6.574;2024-01-11T01:37:57;-5.10;99.90
57753;DHT22;43583;53.132;6.574;2024-01-11T01:40:23;-5.20;99.90
57753;DHT22;43583;53.132;6.574;2024-01-11T01:42:49;-5.20;99.90
57753;DHT22;43583;53.132;6.574;2024-01-11T01:45:15;-5.20;99.90
57753;DHT22;43583;53.132;6.574;2024-01-11T01:47:42;-5.20;99.90
57753;DHT22;43583;53.132;6.574;2024-01-11T01:50:10;-5.20;99.90
57753;DHT22;43583;53.132;6.574;2024-01-11T01:52:36;-5.20;99.90
57753;DHT22;43583;53.132;6.574;2024-01-11T01:55:04;-5.20;99.90
57753;DHT22;43583;53.132;6.574;2024-01-11T01:57:32;-5.20;99.90
57753;DHT22;43583;53.132;6.574;2024-01-11T01:59:59;-5.30;99.90
57753;DHT22;43583;53.132;6.574;2024-01-11T02:02:27;-5.30;99.90
57753;DHT22;43583;53.132;6.574;2024-01-11T02:04:53;-5.40;99.90
57753;DHT22;43583;53.132;6.574;2024-01-11T02:07:19;-5.40;99.90
57753;DHT22;43583;53.132;6.574;2024-01-11T02:09:44;-5.50;99.90
57753;DHT22;43583;53.132;6.574;2024-01-11T02:12:12;-5.50;99.90
57753;DHT22;43583;53.132;6.574;2024-01-11T02:14:39;-5.60;99.90
57753;DHT22;43583;53.132;6.574;2024-01-11T02:17:05;-5.60;99.90
57753;DHT22;43583;53.132;6.574;2024-01-11T02:19:31;-5.60;99.90
57753;DHT22;43583;53.132;6.574;2024-01-11T02:22:02;-5.70;99.90
57753;DHT22;43583;53.132;6.574;2024-01-11T02:24:30;-5.70;99.90
57753;DHT22;43583;53.132;6.574;2024-01-11T02:27:04;-5.70;99.90
57753;DHT22;43583;53.132;6.574;2024-01-11T02:29:30;-5.80;99.90
57753;DHT22;43583;53.132;6.574;2024-01-11T02:31:56;-5.80;99.90
57753;DHT22;43583;53.132;6.574;2024-01-11T02:34:23;-5.80;99.90
57753;DHT22;43583;53.132;6.574;2024-01-11T02:36:49;-5.90;99.90
57753;DHT22;43583;53.132;6.574;2024-01-11T02:39:17;-5.90;99.90
57753;DHT22;43583;53.132;6.574;2024-01-11T02:41:44;-5.90;99.90
57753;DHT22;43583;53.132;6.574;2024-01-11T02:44:10;-5.90;99.90
57753;DHT22;43583;53.132;6.574;2024-01-11T02:46:35;-5.90;99.90
57753;DHT22;43583;53.132;6.574;2024-01-11T02:49:01;-6.00;99.90
57753;DHT22;43583;53.132;6.574;2024-01-11T02:51:27;-6.00;99.90
57753;DHT22;43583;53.132;6.574;2024-01-11T02:53:52;-6.00;99.90
57753;DHT22;43583;53.132;6.574;2024-01-11T02:56:18;-6.00;99.90
57753;DHT22;43583;53.132;6.574;2024-01-11T02:58:43;-6.00;99.90
57753;DHT22;43583;53.132;6.574;2024-01-11T03:01:09;-6.00;99.90
57753;DHT22;43583;53.132;6.574;2024-01-11T03:03:35;-6.10;99.90
57753;DHT22;43583;53.132;6.574;2024-01-11T03:06:01;-6.10;99.90
57753;DHT22;43583;53.132;6.574;2024-01-11T03:08:27;-6.20;99.90
57753;DHT22;43583;53.132;6.574;2024-01-11T03:10:52;-6.20;99.90
57753;DHT22;43583;53.132;6.574;2024-01-11T03:13:18;-6.20;99.90
57753;DHT22;43583;53.132;6.574;2024-01-11T03:15:44;-6.20;99.90
57753;DHT22;43583;53.132;6.574;2024-01-11T03:18:09;-6.30;99.90
57753;DHT22;43583;53.132;6.574;2024-01-11T03:20:35;-6.30;99.90
57753;DHT22;43583;53.132;6.574;2024-01-11T03:23:01;-6.30;99.90
57753;DHT22;43583;53.132;6.574;2024-01-11T03:25:27;-6.30;99.90
57753;DHT22;43583;53.132;6.574;2024-01-11T03:27:54;-6.30;99.90
57753;DHT22;43583;53.132;6.574;2024-01-11T03:30:20;-6.40;99.90
57753;DHT22;43583;53.132;6.574;2024-01-11T03:32:45;-6.40;99.90
57753;DHT22;43583;53.132;6.574;2024-01-11T03:35:11;-6.40;99.90
57753;DHT22;43583;53.132;6.574;2024-01-11T03:37:37;-6.30;99.90
57753;DHT22;43583;53.132;6.574;2024-01-11T03:40:03;-6.40;99.90
57753;DHT22;43583;53.132;6.574;2024-01-11T03:42:29;-6.30;99.90
57753;DHT22;43583;53.132;6.574;2024-01-11T03:44:55;-6.30;99.90
57753;DHT22;43583;53.132;6.574;2024-01-11T03:47:20;-6.30;99.90
57753;DHT22;43583;53.132;6.574;2024-01-11T03:49:46;-6.20;99.90
57753;DHT22;43583;53.132;6.574;2024-01-11T03:52:12;-6.20;99.90
57753;DHT22;43583;53.132;6.574;2024-01-11T03:54:38;-6.10;99.90
57753;DHT22;43583;53.132;6.574;2024-01-11T03:57:03;-6.00;99.90
57753;DHT22;43583;53.132;6.574;2024-01-11T03:59:29;-6.00;99.90
57753;DHT22;43583;53.132;6.574;2024-01-11T04:01:55;-6.00;99.90
57753;DHT22;43583;53.132;6.574;2024-01-11T04:04:21;-6.10;99.90
57753;DHT22;43583;53.132;6.574;2024-01-11T04:06:48;-6.10;99.90
57753;DHT22;43583;53.132;6.574;2024-01-11T04:09:14;-6.10;99.90
57753;DHT22;43583;53.132;6.574;2024-01-11T04:11:39;-6.10;99.90
57753;DHT22;43583;53.132;6.574;2024-01-11T04:14:05;-6.10;99.90
57753;DHT22;43583;53.132;6.574;2024-01-11T04:16:31;-6.00;99.90
57753;DHT22;43583;53.132;6.574;2024-01-11T04:18:57;-6.00;99.90
57753;DHT22;43583;53.132;6.574;2024-01-11T04:21:27;-6.00;99.90
57753;DHT22;43583;53.132;6.574;2024-01-11T04:23:56;-5.80;99.90
57753;DHT22;43583;53.132;6.574;2024-01-11T04:26:22;-5.80;99.90
57753;DHT22;43583;53.132;6.574;2024-01-11T04:28:48;-5.70;99.90
57753;DHT22;43583;53.132;6.574;2024-01-11T04:31:15;-5.60;99.90
57753;DHT22;43583;53.132;6.574;2024-01-11T04:33:45;-5.50;99.90
57753;DHT22;43583;53.132;6.574;2024-01-11T04:36:12;-5.40;99.90
57753;DHT22;43583;53.132;6.574;2024-01-11T04:38:38;-5.40;99.90
57753;DHT22;43583;53.132;6.574;2024-01-11T04:41:11;-5.20;99.90
57753;DHT22;43583;53.132;6.574;2024-01-11T04:43:44;-5.20;99.90
57753;DHT22;43583;53.132;6.574;2024-01-11T04:48:39;-5.00;99.90
57753;DHT22;43583;53.132;6.574;2024-01-11T04:51:05;-4.90;99.90
57753;DHT22;43583;53.132;6.574;2024-01-11T04:53:30;-4.80;99.90
57753;DHT22;43583;53.132;6.574;2024-01-11T04:55:56;-4.70;99.90
57753;DHT22;43583;53.132;6.574;2024-01-11T04:58:22;-4.60;99.90
57753;DHT22;43583;53.132;6.574;2024-01-11T05:00:48;-4.50;99.90
57753;DHT22;43583;53.132;6.574;2024-01-11T05:03:14;-4.40;99.90
57753;DHT22;43583;53.132;6.574;2024-01-11T05:05:39;-4.30;99.90
57753;DHT22;43583;53.132;6.574;2024-01-11T05:08:05;-4.30;99.90
57753;DHT22;43583;53.132;6.574;2024-01-11T05:10:31;-4.20;99.90
57753;DHT22;43583;53.132;6.574;2024-01-11T05:12:56;-4.10;99.90
57753;DHT22;43583;53.132;6.574;2024-01-11T05:15:22;-4.00;99.90
57753;DHT22;43583;53.132;6.574;2024-01-11T05:17:48;-3.90;99.90
57753;DHT22;43583;53.132;6.574;2024-01-11T05:20:14;-3.80;99.90
57753;DHT22;43583;53.132;6.574;2024-01-11T05:22:40;-3.80;99.90
57753;DHT22;43583;53.132;6.574;2024-01-11T05:25:06;-3.70;99.90
57753;DHT22;43583;53.132;6.574;2024-01-11T05:27:31;-3.60;99.90
57753;DHT22;43583;53.132;6.574;2024-01-11T05:29:57;-3.50;99.90
57753;DHT22;43583;53.132;6.574;2024-01-11T05:32:23;-3.40;99.90
57753;DHT22;43583;53.132;6.574;2024-01-11T05:34:48;-3.40;99.90
57753;DHT22;43583;53.132;6.574;2024-01-11T05:37:14;-3.30;99.90
57753;DHT22;43583;53.132;6.574;2024-01-11T05:39:40;-3.20;99.90
57753;DHT22;43583;53.132;6.574;2024-01-11T05:42:05;-3.20;99.90
57753;DHT22;43583;53.132;6.574;2024-01-11T05:44:31;-3.20;99.90
57753;DHT22;43583;53.132;6.574;2024-01-11T05:46:57;-3.10;99.90
57753;DHT22;43583;53.132;6.574;2024-01-11T05:49:23;-3.10;99.90
57753;DHT22;43583;53.132;6.574;2024-01-11T05:51:49;-3.00;99.90
57753;DHT22;43583;53.132;6.574;2024-01-11T05:54:14;-3.00;99.90
57753;DHT22;43583;53.132;6.574;2024-01-11T05:56:40;-3.00;99.90
57753;DHT22;43583;53.132;6.574;2024-01-11T05:59:05;-2.90;99.90
57753;DHT22;43583;53.132;6.574;2024-01-11T06:01:31;-2.80;99.90
57753;DHT22;43583;53.132;6.574;2024-01-11T06:03:57;-2.80;99.90
57753;DHT22;43583;53.132;6.574;2024-01-11T06:06:23;-2.70;99.90
57753;DHT22;43583;53.132;6.574;2024-01-11T06:08:48;-2.70;99.90
57753;DHT22;43583;53.132;6.574;2024-01-11T06:11:14;-2.60;99.90
57753;DHT22;43583;53.132;6.574;2024-01-11T06:13:43;-2.60;99.90
57753;DHT22;43583;53.132;6.574;2024-01-11T06:16:08;-2.60;99.90
57753;DHT22;43583;53.132;6.574;2024-01-11T06:18:34;-2.60;99.90
57753;DHT22;43583;53.132;6.574;2024-01-11T06:21:00;-2.50;99.90
57753;DHT22;43583;53.132;6.574;2024-01-11T06:23:26;-2.50;99.90
57753;DHT22;43583;53.132;6.574;2024-01-11T06:25:52;-2.50;99.90
57753;DHT22;43583;53.132;6.574;2024-01-11T06:28:17;-2.40;99.90
57753;DHT22;43583;53.132;6.574;2024-01-11T06:30:43;-2.40;99.90
57753;DHT22;43583;53.132;6.574;2024-01-11T06:33:09;-2.40;99.90
57753;DHT22;43583;53.132;6.574;2024-01-11T06:35:34;-2.30;99.90
57753;DHT22;43583;53.132;6.574;2024-01-11T06:38:00;-2.30;99.90
57753;DHT22;43583;53.132;6.574;2024-01-11T06:40:26;-2.30;99.90
57753;DHT22;43583;53.132;6.574;2024-01-11T06:42:51;-2.20;99.90
57753;DHT22;43583;53.132;6.574;2024-01-11T06:45:17;-2.20;99.90
57753;DHT22;43583;53.132;6.574;2024-01-11T06:47:44;-2.20;99.90
57753;DHT22;43583;53.132;6.574;2024-01-11T06:50:13;-2.10;99.90
57753;DHT22;43583;53.132;6.574;2024-01-11T06:52:38;-2.20;99.90
57753;DHT22;43583;53.132;6.574;2024-01-11T06:55:04;-2.10;99.90
57753;DHT22;43583;53.132;6.574;2024-01-11T06:57:30;-2.10;99.90
57753;DHT22;43583;53.132;6.574;2024-01-11T06:59:56;-2.10;99.90
57753;DHT22;43583;53.132;6.574;2024-01-11T07:02:22;-2.00;99.90
57753;DHT22;43583;53.132;6.574;2024-01-11T07:04:47;-2.00;99.90
57753;DHT22;43583;53.132;6.574;2024-01-11T07:07:13;-2.00;99.90
57753;DHT22;43583;53.132;6.574;2024-01-11T07:09:39;-2.00;99.90
57753;DHT22;43583;53.132;6.574;2024-01-11T07:12:05;-1.90;99.90
57753;DHT22;43583;53.132;6.574;2024-01-11T07:14:31;-1.90;99.90
57753;DHT22;43583;53.132;6.574;2024-01-11T07:16:57;-1.90;99.90
57753;DHT22;43583;53.132;6.574;2024-01-11T07:19:23;-1.90;99.90
57753;DHT22;43583;53.132;6.574;2024-01-11T07:21:49;-1.90;99.90
57753;DHT22;43583;53.132;6.574;2024-01-11T07:24:14;-1.80;99.90
57753;DHT22;43583;53.132;6.574;2024-01-11T07:26:41;-1.80;99.90
57753;DHT22;43583;53.132;6.574;2024-01-11T07:29:07;-1.80;99.90
57753;DHT22;43583;53.132;6.574;2024-01-11T07:31:32;-1.80;99.90
57753;DHT22;43583;53.132;6.574;2024-01-11T07:33:59;-1.70;99.90
57753;DHT22;43583;53.132;6.574;2024-01-11T07:36:24;-1.70;99.90
57753;DHT22;43583;53.132;6.574;2024-01-11T07:38:50;-1.70;99.90
57753;DHT22;43583;53.132;6.574;2024-01-11T07:41:16;-1.60;99.90
57753;DHT22;43583;53.132;6.574;2024-01-11T07:43:42;-1.60;99.90
57753;DHT22;43583;53.132;6.574;2024-01-11T07:46:08;-1.60;99.90
57753;DHT22;43583;53.132;6.574;2024-01-11T07:48:35;-1.60;99.90
57753;DHT22;43583;53.132;6.574;2024-01-11T07:51:00;-1.50;99.90
57753;DHT22;43583;53.132;6.574;2024-01-11T07:53:26;-1.50;99.90
57753;DHT22;43583;53.132;6.574;2024-01-11T07:55:52;-1.50;99.90
57753;DHT22;43583;53.132;6.574;2024-01-11T07:58:18;-1.50;99.90
57753;DHT22;43583;53.132;6.574;2024-01-11T08:00:46;-1.50;99.90
57753;DHT22;43583;53.132;6.574;2024-01-11T08:03:12;-1.40;99.90
57753;DHT22;43583;53.132;6.574;2024-01-11T08:05:38;-1.40;99.90
57753;DHT22;43583;53.132;6.574;2024-01-11T08:08:04;-1.40;99.90
57753;DHT22;43583;53.132;6.574;2024-01-11T08:10:30;-1.30;99.90
57753;DHT22;43583;53.132;6.574;2024-01-11T08:12:56;-1.30;99.90
57753;DHT22;43583;53.132;6.574;2024-01-11T08:15:22;-1.30;99.90
57753;DHT22;43583;53.132;6.574;2024-01-11T08:17:48;-1.20;99.90
57753;DHT22;43583;53.132;6.574;2024-01-11T08:20:14;-1.20;99.90
57753;DHT22;43583;53.132;6.574;2024-01-11T08:22:43;-1.20;99.90
57753;DHT22;43583;53.132;6.574;2024-01-11T08:25:09;-1.10;99.90
57753;DHT22;43583;53.132;6.574;2024-01-11T08:27:35;-1.10;99.90
57753;DHT22;43583;53.132;6.574;2024-01-11T08:30:01;-1.00;99.90
57753;DHT22;43583;53.132;6.574;2024-01-11T08:32:28;-1.00;99.90
57753;DHT22;43583;53.132;6.574;2024-01-11T08:34:54;-1.00;99.90
57753;DHT22;43583;53.132;6.574;2024-01-11T08:37:20;-0.90;99.90
57753;DHT22;43583;53.132;6.574;2024-01-11T08:39:45;-0.80;99.90
57753;DHT22;43583;53.132;6.574;2024-01-11T08:42:12;-0.80;99.90
57753;DHT22;43583;53.132;6.574;2024-01-11T08:44:41;-0.70;99.90
57753;DHT22;43583;53.132;6.574;2024-01-11T08:47:08;-0.70;99.90
57753;DHT22;43583;53.132;6.574;2024-01-11T08:49:40;-0.60;99.90
57753;DHT22;43583;53.132;6.574;2024-01-11T08:52:08;-0.50;99.90
57753;DHT22;43583;53.132;6.574;2024-01-11T08:54:33;-0.50;99.90
57753;DHT22;43583;53.132;6.574;2024-01-11T08:56:59;-0.40;99.90
57753;DHT22;43583;53.132;6.574;2024-01-11T08:59:25;-0.40;99.90
57753;DHT22;43583;53.132;6.574;2024-01-11T09:01:52;-0.30;99.90
57753;DHT22;43583;53.132;6.574;2024-01-11T09:04:18;-0.30;99.90
57753;DHT22;43583;53.132;6.574;2024-01-11T09:06:44;-0.20;99.90
57753;DHT22;43583;53.132;6.574;2024-01-11T09:09:10;-0.20;99.90
57753;DHT22;43583;53.132;6.574;2024-01-11T09:11:36;-0.10;99.90
57753;DHT22;43583;53.132;6.574;2024-01-11T09:14:02;-0.10;99.90
57753;DHT22;43583;53.132;6.574;2024-01-11T09:16:30;0.00;99.90
57753;DHT22;43583;53.132;6.574;2024-01-11T09:18:56;0.10;99.90
57753;DHT22;43583;53.132;6.574;2024-01-11T09:21:22;0.10;99.90
57753;DHT22;43583;53.132;6.574;2024-01-11T09:23:48;0.20;99.90
57753;DHT22;43583;53.132;6.574;2024-01-11T09:26:13;0.30;99.90
57753;DHT22;43583;53.132;6.574;2024-01-11T09:28:39;0.30;99.90
57753;DHT22;43583;53.132;6.574;2024-01-11T09:31:05;0.40;99.90
57753;DHT22;43583;53.132;6.574;2024-01-11T09:33:31;0.50;99.90
57753;DHT22;43583;53.132;6.574;2024-01-11T09:35:57;0.60;99.90
57753;DHT22;43583;53.132;6.574;2024-01-11T09:38:24;0.60;99.90
57753;DHT22;43583;53.132;6.574;2024-01-11T09:41:09;0.70;99.90
57753;DHT22;43583;53.132;6.574;2024-01-11T09:43:36;0.70;99.90
57753;DHT22;43583;53.132;6.574;2024-01-11T09:46:06;0.80;99.90
57753;DHT22;43583;53.132;6.574;2024-01-11T09:48:35;0.80;99.90
57753;DHT22;43583;53.132;6.574;2024-01-11T09:51:03;0.90;99.90
57753;DHT22;43583;53.132;6.574;2024-01-11T09:53:32;0.90;99.90
57753;DHT22;43583;53.132;6.574;2024-01-11T09:56:01;1.00;99.90
57753;DHT22;43583;53.132;6.574;2024-01-11T09:58:27;1.10;99.90
57753;DHT22;43583;53.132;6.574;2024-01-11T10:00:55;1.10;99.90
57753;DHT22;43583;53.132;6.574;2024-01-11T10:03:23;1.20;99.90
57753;DHT22;43583;53.132;6.574;2024-01-11T10:05:50;1.20;99.90
57753;DHT22;43583;53.132;6.574;2024-01-11T10:08:22;1.20;99.90
57753;DHT22;43583;53.132;6.574;2024-01-11T10:10:49;1.30;99.90
57753;DHT22;43583;53.132;6.574;2024-01-11T10:13:16;1.30;99.90
57753;DHT22;43583;53.132;6.574;2024-01-11T10:15:43;1.30;99.90
57753;DHT22;43583;53.132;6.574;2024-01-11T10:18:09;1.30;99.90
57753;DHT22;43583;53.132;6.574;2024-01-11T10:20:34;1.30;99.90
57753;DHT22;43583;53.132;6.574;2024-01-11T10:23:01;1.30;99.90
57753;DHT22;43583;53.132;6.574;2024-01-11T10:25:27;1.40;99.90
57753;DHT22;43583;53.132;6.574;2024-01-11T10:27:54;1.30;99.90
57753;DHT22;43583;53.132;6.574;2024-01-11T10:30:20;1.40;99.90
57753;DHT22;43583;53.132;6.574;2024-01-11T10:32:48;1.40;99.90
57753;DHT22;43583;53.132;6.574;2024-01-11T10:35:15;1.40;99.90
57753;DHT22;43583;53.132;6.574;2024-01-11T10:37:43;1.40;99.90
57753;DHT22;43583;53.132;6.574;2024-01-11T10:40:10;1.40;99.90
57753;DHT22;43583;53.132;6.574;2024-01-11T10:42:45;1.40;99.90
57753;DHT22;43583;53.132;6.574;2024-01-11T10:45:16;1.40;99.90
57753;DHT22;43583;53.132;6.574;2024-01-11T10:47:56;1.40;99.90
57753;DHT22;43583;53.132;6.574;2024-01-11T10:50:25;1.40;99.90
57753;DHT22;43583;53.132;6.574;2024-01-11T10:55:55;1.40;99.90
57753;DHT22;43583;53.132;6.574;2024-01-11T10:58:23;1.40;99.90
57753;DHT22;43583;53.132;6.574;2024-01-11T11:00:51;1.40;99.90
57753;DHT22;43583;53.132;6.574;2024-01-11T11:03:20;1.40;99.90
57753;DHT22;43583;53.132;6.574;2024-01-11T11:05:53;1.50;99.90
57753;DHT22;43583;53.132;6.574;2024-01-11T11:08:19;1.50;99.90
57753;DHT22;43583;53.132;6.574;2024-01-11T11:10:46;1.50;99.90
57753;DHT22;43583;53.132;6.574;2024-01-11T11:13:14;1.60;99.90
57753;DHT22;43583;53.132;6.574;2024-01-11T11:15:45;1.60;99.90
57753;DHT22;43583;53.132;6.574;2024-01-11T11:18:13;1.60;99.90
57753;DHT22;43583;53.132;6.574;2024-01-11T11:20:39;1.60;99.90
57753;DHT22;43583;53.132;6.574;2024-01-11T11:23:08;1.70;99.90
57753;DHT22;43583;53.132;6.574;2024-01-11T11:25:35;1.70;99.90
57753;DHT22;43583;53.132;6.574;2024-01-11T11:28:01;1.70;99.90
57753;DHT22;43583;53.132;6.574;2024-01-11T11:30:33;1.80;99.90
57753;DHT22;43583;53.132;6.574;2024-01-11T11:35:35;1.80;99.90
57753;DHT22;43583;53.132;6.574;2024-01-11T11:38:01;1.80;99.90
57753;DHT22;43583;53.132;6.574;2024-01-11T11:40:38;1.90;99.90
57753;DHT22;43583;53.132;6.574;2024-01-11T11:43:08;1.90;99.90
57753;DHT22;43583;53.132;6.574;2024-01-11T11:45:34;1.90;99.90
57753;DHT22;43583;53.132;6.574;2024-01-11T11:51:07;1.90;99.90
57753;DHT22;43583;53.132;6.574;2024-01-11T11:53:37;1.90;99.90
57753;DHT22;43583;53.132;6.574;2024-01-11T11:56:04;2.00;99.90
57753;DHT22;43583;53.132;6.574;2024-01-11T11:58:30;2.00;99.90
57753;DHT22;43583;53.132;6.574;2024-01-11T12:00:58;2.10;99.90
57753;DHT22;43583;53.132;6.574;2024-01-11T12:03:37;2.10;99.90
57753;DHT22;43583;53.132;6.574;2024-01-11T12:06:05;2.10;99.90
57753;DHT22;43583;53.132;6.574;2024-01-11T12:08:31;2.10;99.90
57753;DHT22;43583;53.132;6.574;2024-01-11T12:10:58;2.10;99.90
57753;DHT22;43583;53.132;6.574;2024-01-11T12:13:24;2.00;99.90
57753;DHT22;43583;53.132;6.574;2024-01-11T12:15:50;2.00;99.90
57753;DHT22;43583;53.132;6.574;2024-01-11T12:18:16;2.00;99.90
57753;DHT22;43583;53.132;6.574;2024-01-11T12:20:42;2.00;99.90
57753;DHT22;43583;53.132;6.574;2024-01-11T12:23:08;2.00;99.90
57753;DHT22;43583;53.132;6.574;2024-01-11T12:25:34;2.00;99.90
57753;DHT22;43583;53.132;6.574;2024-01-11T12:28:00;2.00;99.90
57753;DHT22;43583;53.132;6.574;2024-01-11T12:30:26;2.00;99.90
57753;DHT22;43583;53.132;6.574;2024-01-11T12:32:56;2.00;99.90
57753;DHT22;43583;53.132;6.574;2024-01-11T12:35:22;2.00;99.90
57753;DHT22;43583;53.132;6.574;2024-01-11T12:37:55;2.00;99.90
57753;DHT22;43583;53.132;6.574;2024-01-11T12:40:21;2.00;99.90
57753;DHT22;43583;53.132;6.574;2024-01-11T12:42:48;1.90;99.90
57753;DHT22;43583;53.132;6.574;2024-01-11T12:45:16;1.90;99.90
57753;DHT22;43583;53.132;6.574;2024-01-11T12:47:41;2.00;99.90
57753;DHT22;43583;53.132;6.574;2024-01-11T12:50:07;2.00;99.90
57753;DHT22;43583;53.132;6.574;2024-01-11T12:52:33;1.90;99.90
57753;DHT22;43583;53.132;6.574;2024-01-11T12:54:59;2.00;99.90
57753;DHT22;43583;53.132;6.574;2024-01-11T12:57:25;2.00;99.90
57753;DHT22;43583;53.132;6.574;2024-01-11T12:59:52;2.10;99.90
57753;DHT22;43583;53.132;6.574;2024-01-11T13:02:18;2.10;99.90
57753;DHT22;43583;53.132;6.574;2024-01-11T13:04:45;2.10;99.90
57753;DHT22;43583;53.132;6.574;2024-01-11T13:07:12;2.10;99.90
57753;DHT22;43583;53.132;6.574;2024-01-11T13:09:38;2.10;99.90
57753;DHT22;43583;53.132;6.574;2024-01-11T13:12:05;2.10;99.90
57753;DHT22;43583;53.132;6.574;2024-01-11T13:14:30;2.10;99.90
57753;DHT22;43583;53.132;6.574;2024-01-11T13:16:57;2.10;99.90
57753;DHT22;43583;53.132;6.574;2024-01-11T13:19:23;2.10;99.90
57753;DHT22;43583;53.132;6.574;2024-01-11T13:21:48;2.10;99.90
57753;DHT22;43583;53.132;6.574;2024-01-11T13:24:14;2.10;99.90
57753;DHT22;43583;53.132;6.574;2024-01-11T13:26:40;2.10;99.90
57753;DHT22;43583;53.132;6.574;2024-01-11T13:29:06;2.10;99.90
57753;DHT22;43583;53.132;6.574;2024-01-11T13:31:32;2.10;99.90
57753;DHT22;43583;53.132;6.574;2024-01-11T13:33:58;2.10;99.90
57753;DHT22;43583;53.132;6.574;2024-01-11T13:36:24;2.10;99.90
57753;DHT22;43583;53.132;6.574;2024-01-11T13:38:50;2.10;99.90
57753;DHT22;43583;53.132;6.574;2024-01-11T13:41:16;2.10;99.90
57753;DHT22;43583;53.132;6.574;2024-01-11T13:43:43;2.10;99.90
57753;DHT22;43583;53.132;6.574;2024-01-11T13:46:08;2.10;99.90
57753;DHT22;43583;53.132;6.574;2024-01-11T13:48:34;2.10;99.90
57753;DHT22;43583;53.132;6.574;2024-01-11T13:51:01;2.10;99.90
57753;DHT22;43583;53.132;6.574;2024-01-11T13:53:29;2.10;99.90
57753;DHT22;43583;53.132;6.574;2024-01-11T13:55:55;2.10;99.90
57753;DHT22;43583;53.132;6.574;2024-01-11T13:58:21;2.10;99.90
57753;DHT22;43583;53.132;6.574;2024-01-11T14:00:47;2.20;99.90
57753;DHT22;43583;53.132;6.574;2024-01-11T14:03:13;2.20;99.90
57753;DHT22;43583;53.132;6.574;2024-01-11T14:05:38;2.20;99.90
57753;DHT22;43583;53.132;6.574;2024-01-11T14:08:04;2.20;99.90
57753;DHT22;43583;53.132;6.574;2024-01-11T14:10:33;2.20;99.90
57753;DHT22;43583;53.132;6.574;2024-01-11T14:13:00;2.20;99.90
57753;DHT22;43583;53.132;6.574;2024-01-11T14:15:27;2.20;99.90
57753;DHT22;43583;53.132;6.574;2024-01-11T14:25:36;2.30;99.90
57753;DHT22;43583;53.132;6.574;2024-01-11T14:39:35;2.40;99.90
57753;DHT22;43583;53.132;6.574;2024-01-11T14:42:01;2.60;99.90
57753;DHT22;43583;53.132;6.574;2024-01-11T14:44:26;2.60;99.90
57753;DHT22;43583;53.132;6.574;2024-01-11T14:46:52;2.50;99.90
57753;DHT22;43583;53.132;6.574;2024-01-11T14:49:18;2.50;99.90
57753;DHT22;43583;53.132;6.574;2024-01-11T14:51:43;2.50;99.90
57753;DHT22;43583;53.132;6.574;2024-01-11T14:54:10;2.50;99.90
57753;DHT22;43583;53.132;6.574;2024-01-11T14:56:35;2.50;99.90
57753;DHT22;43583;53.132;6.574;2024-01-11T14:59:01;2.50;99.90
57753;DHT22;43583;53.132;6.574;2024-01-11T15:01:27;2.50;99.90
57753;DHT22;43583;53.132;6.574;2024-01-11T15:03:52;2.40;99.90
57753;DHT22;43583;53.132;6.574;2024-01-11T15:06:18;2.40;99.90
57753;DHT22;43583;53.132;6.574;2024-01-11T15:08:44;2.40;99.90
57753;DHT22;43583;53.132;6.574;2024-01-11T15:11:10;2.40;99.90
57753;DHT22;43583;53.132;6.574;2024-01-11T15:13:35;2.40;99.90
57753;DHT22;43583;53.132;6.574;2024-01-11T15:16:01;2.40;99.90
57753;DHT22;43583;53.132;6.574;2024-01-11T15:18:27;2.40;99.90
57753;DHT22;43583;53.132;6.574;2024-01-11T15:20:53;2.30;99.90
57753;DHT22;43583;53.132;6.574;2024-01-11T15:23:19;2.30;99.90
57753;DHT22;43583;53.132;6.574;2024-01-11T15:25:44;2.30;99.90
57753;DHT22;43583;53.132;6.574;2024-01-11T15:28:10;2.30;99.90
57753;DHT22;43583;53.132;6.574;2024-01-11T15:30:36;2.30;99.90
57753;DHT22;43583;53.132;6.574;2024-01-11T15:33:02;2.30;99.90
57753;DHT22;43583;53.132;6.574;2024-01-11T15:35:28;2.30;99.90
57753;DHT22;43583;53.132;6.574;2024-01-11T15:37:54;2.20;99.90
57753;DHT22;43583;53.132;6.574;2024-01-11T15:40:20;2.20;99.90
57753;DHT22;43583;53.132;6.574;2024-01-11T15:42:45;2.20;99.90
57753;DHT22;43583;53.132;6.574;2024-01-11T15:45:11;2.10;99.90
57753;DHT22;43583;53.132;6.574;2024-01-11T15:47:37;2.10;99.90
57753;DHT22;43583;53.132;6.574;2024-01-11T15:50:04;2.10;99.90
57753;DHT22;43583;53.132;6.574;2024-01-11T15:52:37;2.20;99.90
57753;DHT22;43583;53.132;6.574;2024-01-11T15:55:03;2.20;99.90
57753;DHT22;43583;53.132;6.574;2024-01-11T15:57:31;2.20;99.90
57753;DHT22;43583;53.132;6.574;2024-01-11T15:59:57;2.10;99.90
57753;DHT22;43583;53.132;6.574;2024-01-11T16:02:23;2.20;99.90